Time;durP1;ratioP1;P1;durP2;ratioP2;P2;SDS_P1;SDS_P2;PMS_P1;PMS_P2;Temp;Humidity;BMP_temperature;BMP_pressure;BME280_temperature;BME280_humidity;BME280_pressure;Samples;Min_cycle;Max_cycle;Signal;HPM_P1;HPM_P2
2023/04/20 00:02:04;;;;;;;74.87;39.77;;;;;;;;;;7713239;23;20457;-83
2023/04/20 00:05:07;;;;;;;68.65;36.30;;;;;;;;;;7716227;23;20005;-84
2023/04/20 00:08:08;;;;;;;74.00;41.50;;;;;;;;;;7714099;23;19996;-83
2023/04/20 00:11:08;;;;;;;71.90;36.63;;;;;;;;;;7714520;23;20016;-83
2023/04/20 00:14:08;;;;;;;72.87;37.77;;;;;;;;;;7713777;23;19999;-84
2023/04/20 00:17:08;;;;;;;70.03;39.50;;;;;;;;;;7713376;23;19996;-82
2023/04/20 00:20:09;;;;;;;70.60;39.07;;;;;;;;;;7713125;23;20329;-82
2023/04/20 00:23:10;;;;;;;71.37;39.73;;;;;;;;;;7713013;23;20003;-82
2023/04/20 00:26:10;;;;;;;74.93;40.83;;;;;;;;;;7713488;23;19997;-83
2023/04/20 00:29:10;;;;;;;64.13;37.83;;;;;;;;;;7712785;23;20366;-83
2023/04/20 00:32:10;;;;;;;72.80;36.90;;;;;;;;;;7712874;23;20039;-83
2023/04/20 00:35:11;;;;;;;69.47;38.42;;;;;;;;;;7712790;23;19989;-83
2023/04/20 00:38:12;;;;;;;72.13;39.43;;;;;;;;;;7713600;23;20412;-83
2023/04/20 00:41:15;;;;;;;75.85;40.22;;;;;;;;;;7713809;23;20074;-82
2023/04/20 00:44:15;;;;;;;78.95;38.03;;;;;;;;;;7713377;23;20072;-83
2023/04/20 00:47:16;;;;;;;71.60;40.33;;;;;;;;;;7713559;23;20064;-83
2023/04/20 00:50:16;;;;;;;75.03;42.97;;;;;;;;;;7716766;23;20004;-82
2023/04/20 00:53:17;;;;;;;75.27;39.27;;;;;;;;;;7729963;23;20413;-74
2023/04/20 00:56:18;;;;;;;76.40;39.53;;;;;;;;;;7711832;23;19988;-73
2023/04/20 00:59:19;;;;;;;71.47;35.60;;;;;;;;;;7685187;23;19996;-73
2023/04/20 01:02:19;;;;;;;65.13;34.87;;;;;;;;;;7710426;23;20016;-74
2023/04/20 01:05:20;;;;;;;67.23;36.93;;;;;;;;;;7711815;23;19985;-73
2023/04/20 01:08:24;;;;;;;72.23;35.53;;;;;;;;;;7711822;23;19989;-74
2023/04/20 01:11:25;;;;;;;67.13;35.78;;;;;;;;;;7711156;23;20460;-74
2023/04/20 01:14:26;;;;;;;63.45;35.42;;;;;;;;;;7711581;23;20008;-74
2023/04/20 01:17:26;;;;;;;74.47;40.07;;;;;;;;;;7711725;23;19993;-73
2023/04/20 01:20:26;;;;;;;66.13;36.20;;;;;;;;;;7711760;23;20000;-73
2023/04/20 01:23:27;;;;;;;70.17;37.90;;;;;;;;;;7711556;23;20036;-73
2023/04/20 01:26:27;;;;;;;76.53;38.63;;;;;;;;;;7710594;23;20362;-74
2023/04/20 01:29:27;;;;;;;65.93;36.17;;;;;;;;;;7711656;23;20071;-73
2023/04/20 01:32:27;;;;;;;59.67;34.43;;;;;;;;;;7711451;23;19997;-73
2023/04/20 01:35:27;;;;;;;67.40;37.03;;;;;;;;;;7711835;23;20000;-73
2023/04/20 01:38:30;;;;;;;68.37;34.23;;;;;;;;;;7711734;23;20329;-74
2023/04/20 01:41:31;;;;;;;68.13;35.95;;;;;;;;;;7711080;23;20000;-74
2023/04/20 01:44:31;;;;;;;70.30;35.33;;;;;;;;;;7711339;23;20003;-74
2023/04/20 01:47:31;;;;;;;69.60;36.83;;;;;;;;;;7711185;23;20481;-74
2023/04/20 01:50:32;;;;;;;59.80;34.93;;;;;;;;;;7709762;23;20436;-74
2023/04/20 01:53:32;;;;;;;62.27;35.77;;;;;;;;;;7709992;23;20090;-74
2023/04/20 01:56:32;;;;;;;69.60;35.72;;;;;;;;;;7709700;23;20007;-74
2023/04/20 01:59:33;;;;;;;58.83;34.30;;;;;;;;;;7711396;23;20027;-74
2023/04/20 02:02:33;;;;;;;69.07;35.93;;;;;;;;;;7711541;23;20059;-83
2023/04/20 02:05:33;;;;;;;78.43;38.15;;;;;;;;;;7686929;23;20008;-83
2023/04/20 02:08:34;;;;;;;69.57;37.17;;;;;;;;;;7713572;23;20000;-83
2023/04/20 02:11:34;;;;;;;70.33;36.83;;;;;;;;;;7712324;23;20104;-83
2023/04/20 02:14:34;;;;;;;69.23;34.33;;;;;;;;;;7715361;23;20429;-74
2023/04/20 02:17:37;;;;;;;64.37;36.43;;;;;;;;;;7715134;23;20071;-74
2023/04/20 02:20:38;;;;;;;66.78;35.90;;;;;;;;;;7715406;23;20007;-73
2023/04/20 02:23:38;;;;;;;73.80;36.00;;;;;;;;;;7715461;23;20001;-74
2023/04/20 02:26:38;;;;;;;66.33;38.03;;;;;;;;;;7715094;23;20008;-74
2023/04/20 02:29:38;;;;;;;71.97;38.33;;;;;;;;;;7714850;23;20004;-73
2023/04/20 02:32:39;;;;;;;67.38;38.47;;;;;;;;;;7715361;23;20024;-73
2023/04/20 02:35:39;;;;;;;73.30;39.97;;;;;;;;;;7715009;23;19992;-73
2023/04/20 02:38:39;;;;;;;69.73;37.00;;;;;;;;;;7715282;23;20445;-74
2023/04/20 02:41:39;;;;;;;71.17;37.93;;;;;;;;;;7714943;23;19993;-74
2023/04/20 02:44:40;;;;;;;67.35;35.10;;;;;;;;;;7713827;23;19996;-74
2023/04/20 02:47:40;;;;;;;67.70;36.03;;;;;;;;;;7715249;23;20002;-73
2023/04/20 02:50:41;;;;;;;60.60;35.07;;;;;;;;;;7715164;23;20429;-74
2023/04/20 02:53:41;;;;;;;58.03;31.80;;;;;;;;;;7715062;23;19993;-74
2023/04/20 02:56:41;;;;;;;64.30;35.83;;;;;;;;;;7687858;23;20000;-74
2023/04/20 02:59:42;;;;;;;57.25;32.13;;;;;;;;;;7714489;23;19996;-74
2023/04/20 03:02:42;;;;;;;58.57;32.97;;;;;;;;;;7714795;23;20035;-74
2023/04/20 03:05:42;;;;;;;60.17;31.67;;;;;;;;;;7715188;23;19996;-74
2023/04/20 03:08:43;;;;;;;56.73;30.80;;;;;;;;;;7714940;23;19996;-74
2023/04/20 03:11:44;;;;;;;53.57;32.30;;;;;;;;;;7714910;23;20005;-73
2023/04/20 03:14:45;;;;;;;60.45;31.67;;;;;;;;;;7718571;23;20003;-82
2023/04/20 03:17:45;;;;;;;59.55;29.50;;;;;;;;;;7723983;23;20000;-83
2023/04/20 03:20:47;;;;;;;59.30;31.90;;;;;;;;;;7716912;23;20050;-84
2023/04/20 03:23:48;;;;;;;53.55;31.30;;;;;;;;;;7721819;23;20337;-85
2023/04/20 03:26:48;;;;;;;53.03;32.17;;;;;;;;;;7722043;23;20001;-83
2023/04/20 03:29:49;;;;;;;55.43;29.07;;;;;;;;;;7718632;23;20330;-84
2023/04/20 03:32:49;;;;;;;55.40;29.02;;;;;;;;;;7718915;23;19992;-83
2023/04/20 03:35:49;;;;;;;60.80;31.87;;;;;;;;;;7719758;23;19997;-85
2023/04/20 03:38:50;;;;;;;55.80;27.60;;;;;;;;;;7719260;23;19999;-84
2023/04/20 03:41:50;;;;;;;55.13;28.90;;;;;;;;;;7718366;23;20004;-82
2023/04/20 03:44:50;;;;;;;49.95;28.88;;;;;;;;;;7715000;23;20000;-84
2023/04/20 03:47:50;;;;;;;58.67;29.75;;;;;;;;;;7712838;23;19996;-81
2023/04/20 03:50:51;;;;;;;50.70;26.17;;;;;;;;;;7713502;23;20019;-81
2023/04/20 03:53:51;;;;;;;50.20;27.63;;;;;;;;;;7713617;23;20096;-83
2023/04/20 03:56:52;;;;;;;51.83;26.42;;;;;;;;;;7713060;23;20456;-83
2023/04/20 03:59:52;;;;;;;48.92;26.58;;;;;;;;;;7714007;23;20020;-84
2023/04/20 04:02:53;;;;;;;55.57;27.53;;;;;;;;;;7712886;23;20012;-84
2023/04/20 04:05:53;;;;;;;54.43;27.83;;;;;;;;;;7712313;23;19996;-84
2023/04/20 04:08:53;;;;;;;54.10;27.73;;;;;;;;;;7714792;23;19997;-83
2023/04/20 04:11:53;;;;;;;54.37;29.33;;;;;;;;;;7713126;23;20004;-81
2023/04/20 04:14:54;;;;;;;46.00;23.03;;;;;;;;;;7713650;23;19988;-83
2023/04/20 04:17:54;;;;;;;49.50;25.80;;;;;;;;;;7712979;23;19996;-84
2023/04/20 04:20:54;;;;;;;56.50;27.90;;;;;;;;;;7713344;23;20007;-82
2023/04/20 04:23:55;;;;;;;53.65;25.23;;;;;;;;;;7713390;23;20045;-74
2023/04/20 04:26:57;;;;;;;53.47;27.13;;;;;;;;;;7712201;23;20345;-74
2023/04/20 04:29:58;;;;;;;64.70;29.35;;;;;;;;;;7686258;23;20012;-74
2023/04/20 04:32:58;;;;;;;57.27;27.63;;;;;;;;;;7712093;23;20435;-74
2023/04/20 04:36:00;;;;;;;59.97;30.70;;;;;;;;;;7711693;23;19993;-74
2023/04/20 04:39:00;;;;;;;57.05;26.73;;;;;;;;;;7711939;23;19997;-74
2023/04/20 04:42:02;;;;;;;50.90;29.83;;;;;;;;;;7712734;23;20333;-75
2023/04/20 04:45:03;;;;;;;55.45;29.60;;;;;;;;;;7712091;23;20076;-74
2023/04/20 04:48:04;;;;;;;57.45;28.90;;;;;;;;;;7711904;23;20004;-74
2023/04/20 04:51:04;;;;;;;62.60;29.87;;;;;;;;;;7684093;23;20008;-74
2023/04/20 04:54:04;;;;;;;54.13;30.10;;;;;;;;;;7711502;23;19997;-74
2023/04/20 04:57:04;;;;;;;50.50;29.47;;;;;;;;;;7711675;23;19996;-74
2023/04/20 05:00:11;;;;;;;59.77;29.63;;;;;;;;;;7711704;23;20024;-74
2023/04/20 05:03:12;;;;;;;53.72;27.60;;;;;;;;;;7710719;23;20017;-74
2023/04/20 05:06:12;;;;;;;56.30;26.60;;;;;;;;;;7711508;23;20000;-74
2023/04/20 05:09:12;;;;;;;62.80;29.47;;;;;;;;;;7711085;23;20040;-74
2023/04/20 05:12:12;;;;;;;54.93;28.57;;;;;;;;;;7711099;23;20005;-74
2023/04/20 05:15:12;;;;;;;56.60;27.33;;;;;;;;;;7710161;23;20404;-74
2023/04/20 05:18:13;;;;;;;61.80;27.73;;;;;;;;;;7711706;23;20315;-74
2023/04/20 05:21:13;;;;;;;61.75;30.48;;;;;;;;;;7711314;23;20437;-74
2023/04/20 05:24:13;;;;;;;64.80;30.33;;;;;;;;;;7711129;23;20079;-74
2023/04/20 05:27:13;;;;;;;55.03;30.93;;;;;;;;;;7711653;23;20113;-74
2023/04/20 05:30:15;;;;;;;65.93;33.07;;;;;;;;;;7711464;23;20000;-75
2023/04/20 05:33:15;;;;;;;70.18;34.95;;;;;;;;;;7719769;23;20019;-81
2023/04/20 05:36:15;;;;;;;60.53;32.03;;;;;;;;;;7737906;23;19989;-76
2023/04/20 05:39:16;;;;;;;65.00;33.93;;;;;;;;;;7740877;23;20022;-82
2023/04/20 05:42:16;;;;;;;70.40;36.17;;;;;;;;;;7713547;23;20092;-73
2023/04/20 05:45:16;;;;;;;61.88;30.00;;;;;;;;;;7710355;23;19996;-73
2023/04/20 05:48:16;;;;;;;66.07;32.50;;;;;;;;;;7708661;23;19996;-73
2023/04/20 05:51:17;;;;;;;62.27;32.03;;;;;;;;;;7710650;23;20051;-74
2023/04/20 05:54:17;;;;;;;64.73;32.73;;;;;;;;;;7711460;23;19997;-73
2023/04/20 05:57:17;;;;;;;63.47;33.57;;;;;;;;;;7710915;23;19992;-74
2023/04/20 06:00:19;;;;;;;56.85;29.63;;;;;;;;;;7706178;23;20376;-73
2023/04/20 06:03:19;;;;;;;58.07;31.00;;;;;;;;;;7707458;23;20017;-74
2023/04/20 06:06:19;;;;;;;54.65;28.70;;;;;;;;;;7708296;23;20001;-74
2023/04/20 06:09:19;;;;;;;63.63;31.87;;;;;;;;;;7709411;23;20004;-73
2023/04/20 06:12:19;;;;;;;58.57;30.37;;;;;;;;;;7708384;23;20031;-74
2023/04/20 06:15:20;;;;;;;50.28;27.92;;;;;;;;;;7709194;23;20175;-73
2023/04/20 06:18:20;;;;;;;58.43;30.73;;;;;;;;;;7683056;23;20007;-74
2023/04/20 06:21:20;;;;;;;51.87;28.83;;;;;;;;;;7709360;23;20003;-74
2023/04/20 06:24:20;;;;;;;51.77;27.00;;;;;;;;;;7709721;23;19996;-74
2023/04/20 06:27:20;;;;;;;59.50;30.47;;;;;;;;;;7709055;23;20008;-74
2023/04/20 06:30:21;;;;;;;51.03;28.30;;;;;;;;;;7710396;23;20000;-74
2023/04/20 06:33:21;;;;;;;53.60;29.70;;;;;;;;;;7710826;23;20425;-74
2023/04/20 06:36:21;;;;;;;61.13;30.88;;;;;;;;;;7683563;23;19996;-74
2023/04/20 06:39:21;;;;;;;56.97;30.47;;;;;;;;;;7710564;23;20388;-75
2023/04/20 06:42:22;;;;;;;51.80;28.83;;;;;;;;;;7710809;23;19996;-84
2023/04/20 06:45:22;;;;;;;46.13;28.77;;;;;;;;;;7713252;23;20011;-85
2023/04/20 06:48:22;;;;;;;50.67;27.50;;;;;;;;;;7712722;23;20358;-83
2023/04/20 06:51:22;;;;;;;45.30;27.77;;;;;;;;;;7712736;23;20000;-83
2023/04/20 06:54:22;;;;;;;45.97;26.02;;;;;;;;;;7711519;23;20015;-84
2023/04/20 06:57:23;;;;;;;42.67;27.03;;;;;;;;;;7712050;23;19997;-84
2023/04/20 07:00:26;;;;;;;47.38;24.98;;;;;;;;;;7712456;23;19996;-84
2023/04/20 07:03:27;;;;;;;43.03;25.70;;;;;;;;;;7713352;23;20043;-85
2023/04/20 07:06:27;;;;;;;;;;;;;;;;;;7715073;23;20001;-83
2023/04/20 07:09:28;;;;;;;46.13;23.67;;;;;;;;;;7714196;23;19947;-83
2023/04/20 07:12:28;;;;;;;38.85;24.83;;;;;;;;;;7687390;23;20071;-84
2023/04/20 07:15:28;;;;;;;39.93;22.50;;;;;;;;;;7714444;23;20448;-84
2023/04/20 07:18:28;;;;;;;37.85;22.40;;;;;;;;;;7715376;23;20118;-86
2023/04/20 07:21:30;;;;;;;36.23;21.83;;;;;;;;;;7714411;23;19997;-84
2023/04/20 07:24:30;;;;;;;36.75;20.30;;;;;;;;;;7713534;23;20071;-83
2023/04/20 07:27:34;;;;;;;30.30;21.23;;;;;;;;;;7712613;23;20002;-84
2023/04/20 07:30:34;;;;;;;36.25;19.83;;;;;;;;;;7713290;23;20000;-85
2023/04/20 07:33:34;;;;;;;37.90;21.03;;;;;;;;;;7713634;23;20413;-83
2023/04/20 07:36:35;;;;;;;42.33;22.50;;;;;;;;;;7710986;23;20020;-84
2023/04/20 07:39:36;;;;;;;33.47;20.30;;;;;;;;;;7712644;23;19989;-85
2023/04/20 07:42:37;;;;;;;;;;;;;;;;;;7714545;23;20001;-85
2023/04/20 07:45:40;;;;;;;37.03;19.53;;;;;;;;;;7712153;23;20240;-85
2023/04/20 07:48:40;;;;;;;26.17;14.38;;;;;;;;;;7715126;23;20000;-85
2023/04/20 07:51:42;;;;;;;23.70;14.75;;;;;;;;;;7711332;23;20000;-85
2023/04/20 07:54:45;;;;;;;24.40;14.48;;;;;;;;;;7712037;23;19997;-85
2023/04/20 07:57:45;;;;;;;24.67;13.95;;;;;;;;;;7712643;23;20004;-84
2023/04/20 08:00:46;;;;;;;27.60;16.20;;;;;;;;;;7712122;23;19996;-84
2023/04/20 08:03:46;;;;;;;26.87;15.53;;;;;;;;;;7712056;23;20016;-83
2023/04/20 08:06:46;;;;;;;29.90;17.00;;;;;;;;;;7708938;23;20003;-83
2023/04/20 08:09:46;;;;;;;32.27;16.33;;;;;;;;;;7710178;23;20027;-81
2023/04/20 08:12:47;;;;;;;35.33;20.40;;;;;;;;;;7712727;23;19993;-82
2023/04/20 08:15:47;;;;;;;33.95;19.88;;;;;;;;;;7711432;23;19993;-83
2023/04/20 08:18:48;;;;;;;33.47;20.13;;;;;;;;;;7712211;23;20003;-84
2023/04/20 08:21:50;;;;;;;31.73;18.40;;;;;;;;;;7686347;23;20024;-83
2023/04/20 08:24:50;;;;;;;34.97;20.10;;;;;;;;;;7709378;23;20000;-84
2023/04/20 08:27:50;;;;;;;33.27;20.30;;;;;;;;;;7711497;23;20031;-84
2023/04/20 08:30:51;;;;;;;33.87;20.27;;;;;;;;;;7712300;23;19997;-84
2023/04/20 08:33:51;;;;;;;28.17;16.90;;;;;;;;;;7713074;23;19997;-84
2023/04/20 08:36:51;;;;;;;24.70;16.20;;;;;;;;;;7713016;23;19992;-84
2023/04/20 08:39:52;;;;;;;25.20;15.40;;;;;;;;;;7713317;23;20004;-85
2023/04/20 08:42:52;;;;;;;23.57;13.97;;;;;;;;;;7713568;23;19997;-84
2023/04/20 08:45:56;;;;;;;18.90;12.10;;;;;;;;;;7712691;23;19996;-84
2023/04/20 08:48:56;;;;;;;21.45;12.18;;;;;;;;;;7712379;23;20329;-84
2023/04/20 08:51:56;;;;;;;16.87;9.47;;;;;;;;;;7712557;23;20003;-80
2023/04/20 08:54:58;;;;;;;22.23;10.47;;;;;;;;;;7713562;23;20248;-85
2023/04/20 08:57:58;;;;;;;22.00;13.60;;;;;;;;;;7712839;23;20046;-83
2023/04/20 09:01:01;;;;;;;29.43;12.93;;;;;;;;;;7712842;23;20000;-83
2023/04/20 09:04:02;;;;;;;19.00;11.52;;;;;;;;;;7712202;23;20015;-75
2023/04/20 09:07:02;;;;;;;20.13;11.33;;;;;;;;;;7711268;23;20080;-75
2023/04/20 09:10:02;;;;;;;19.05;11.35;;;;;;;;;;7710541;23;20008;-75
2023/04/20 09:13:02;;;;;;;26.03;12.03;;;;;;;;;;7712669;23;19997;-85
2023/04/20 09:16:10;;;;;;;23.20;11.93;;;;;;;;;;7711599;23;20422;-83
2023/04/20 09:19:12;;;;;;;25.50;13.75;;;;;;;;;;7713333;23;20021;-84
2023/04/20 09:22:12;;;;;;;28.08;15.32;;;;;;;;;;7712294;23;20005;-84
2023/04/20 09:25:16;;;;;;;19.73;11.20;;;;;;;;;;7687583;23;20443;-84
2023/04/20 09:28:17;;;;;;;24.42;12.13;;;;;;;;;;7688128;23;20051;-83
2023/04/20 09:31:21;;;;;;;19.13;9.77;;;;;;;;;;7712926;23;20000;-84
2023/04/20 09:34:22;;;;;;;13.63;8.13;;;;;;;;;;7711629;23;20004;-84
2023/04/20 09:37:22;;;;;;;20.33;9.43;;;;;;;;;;7712031;23;19997;-84
2023/04/20 09:40:23;;;;;;;16.13;9.80;;;;;;;;;;7712744;23;20481;-84
2023/04/20 09:43:26;;;;;;;21.02;10.88;;;;;;;;;;7713192;23;20003;-83
2023/04/20 09:46:32;;;;;;;18.95;11.48;;;;;;;;;;7714219;23;20000;-83
2023/04/20 09:49:34;;;;;;;19.33;11.68;;;;;;;;;;7685642;23;20019;-80
2023/04/20 09:52:35;;;;;;;21.17;10.27;;;;;;;;;;7714682;23;20005;-83
2023/04/20 09:55:36;;;;;;;8.82;5.57;;;;;;;;;;7725047;23;20016;-79
2023/04/20 09:58:37;;;;;;;9.47;6.10;;;;;;;;;;7743167;23;19993;-80
2023/04/20 10:01:37;;;;;;;15.03;9.07;;;;;;;;;;7745542;23;20009;-82
2023/04/20 10:04:49;;;;;;;20.37;11.03;;;;;;;;;;7744115;23;20003;-83
2023/04/20 10:07:57;;;;;;;9.20;5.72;;;;;;;;;;7711749;23;20008;-82
2023/04/20 10:10:57;;;;;;;12.48;5.53;;;;;;;;;;7712224;23;20047;-80
2023/04/20 10:13:58;;;;;;;12.57;5.20;;;;;;;;;;7711778;23;19993;-75
2023/04/20 10:16:59;;;;;;;12.05;4.63;;;;;;;;;;7711374;23;20539;-73
2023/04/20 10:19:59;;;;;;;14.17;6.23;;;;;;;;;;7710598;23;20000;-75
2023/04/20 10:23:10;;;;;;;15.93;10.33;;;;;;;;;;7717861;23;20001;-80
2023/04/20 10:26:10;;;;;;;16.73;10.60;;;;;;;;;;7742007;23;20064;-81
2023/04/20 10:29:23;;;;;;;17.03;7.03;;;;;;;;;;7738923;23;20042;-81
2023/04/20 10:32:27;;;;;;;10.32;5.53;;;;;;;;;;7717197;23;20007;-83
2023/04/20 10:35:28;;;;;;;13.20;6.13;;;;;;;;;;7714985;23;20127;-84
2023/04/20 10:38:29;;;;;;;;;;;;;;;;;;7714745;23;20046;-84
2023/04/20 10:41:29;;;;;;;13.32;7.97;;;;;;;;;;7713982;23;19907;-82
2023/04/20 10:44:30;;;;;;;14.27;8.03;;;;;;;;;;7714285;23;20046;-83
2023/04/20 10:47:32;;;;;;;11.87;6.40;;;;;;;;;;7713192;23;20005;-84
2023/04/20 10:50:33;;;;;;;13.38;7.80;;;;;;;;;;7714425;23;20547;-84
2023/04/20 10:53:33;;;;;;;15.70;7.83;;;;;;;;;;7714342;23;19997;-84
2023/04/20 10:56:40;;;;;;;14.33;6.30;;;;;;;;;;7713309;23;20077;-86
2023/04/20 10:59:41;;;;;;;15.10;7.78;;;;;;;;;;7713675;23;19997;-82
2023/04/20 11:02:48;;;;;;;15.80;7.65;;;;;;;;;;7714796;23;20008;-83
2023/04/20 11:05:49;;;;;;;16.10;8.82;;;;;;;;;;7714013;23;20389;-83
2023/04/20 11:08:49;;;;;;;12.83;8.20;;;;;;;;;;7714049;23;20063;-82
2023/04/20 11:12:04;;;;;;;11.37;7.00;;;;;;;;;;7712767;23;20670;-83
2023/04/20 11:15:04;;;;;;;14.38;7.30;;;;;;;;;;7712901;23;19992;-84
2023/04/20 11:18:06;;;;;;;14.95;9.23;;;;;;;;;;7712999;23;19992;-83
2023/04/20 11:21:06;;;;;;;14.77;7.70;;;;;;;;;;7712854;23;20072;-84
2023/04/20 11:24:26;;;;;;;15.27;10.23;;;;;;;;;;7686168;23;19993;-81
2023/04/20 11:27:26;;;;;;;17.50;8.43;;;;;;;;;;7713314;23;19997;-83
2023/04/20 11:30:36;;;;;;;15.00;7.80;;;;;;;;;;7713130;23;20008;-84
2023/04/20 11:33:36;;;;;;;16.48;8.20;;;;;;;;;;7713783;23;19989;-82
2023/04/20 11:36:37;;;;;;;14.70;8.90;;;;;;;;;;7713725;23;20313;-83
2023/04/20 11:39:37;;;;;;;16.50;8.10;;;;;;;;;;7713333;23;20003;-84
2023/04/20 11:42:37;;;;;;;14.23;8.80;;;;;;;;;;7686203;23;20228;-83
2023/04/20 11:45:38;;;;;;;12.77;7.53;;;;;;;;;;7686262;23;19996;-83
2023/04/20 11:48:38;;;;;;;12.20;7.93;;;;;;;;;;7713200;23;20424;-83
2023/04/20 11:51:39;;;;;;;15.43;9.07;;;;;;;;;;7711940;23;20002;-82
2023/04/20 11:54:39;;;;;;;21.30;10.23;;;;;;;;;;7685072;23;20004;-83
2023/04/20 11:57:39;;;;;;;22.77;9.18;;;;;;;;;;7711134;23;19992;-84
2023/04/20 12:00:40;;;;;;;13.13;7.13;;;;;;;;;;7712319;23;20047;-84
2023/04/20 12:03:40;;;;;;;18.43;9.07;;;;;;;;;;7712217;23;20449;-83
2023/04/20 12:06:41;;;;;;;21.57;12.13;;;;;;;;;;7712320;23;20031;-83
2023/04/20 12:09:41;;;;;;;11.38;6.90;;;;;;;;;;7711727;23;20000;-83
2023/04/20 12:12:41;;;;;;;18.23;8.83;;;;;;;;;;7708863;23;19992;-84
2023/04/20 12:15:41;;;;;;;13.82;8.07;;;;;;;;;;7712092;23;20039;-84
2023/04/20 12:18:42;;;;;;;15.67;7.30;;;;;;;;;;7712688;23;19993;-84
2023/04/20 12:21:42;;;;;;;14.03;6.83;;;;;;;;;;7712676;23;20050;-82
2023/04/20 12:24:42;;;;;;;21.03;8.20;;;;;;;;;;7711906;23;19993;-83
2023/04/20 12:27:42;;;;;;;13.83;6.10;;;;;;;;;;7712280;23;19992;-84
2023/04/20 12:30:42;;;;;;;13.10;6.23;;;;;;;;;;7711120;23;20058;-84
2023/04/20 12:33:43;;;;;;;13.33;7.23;;;;;;;;;;7711275;23;19992;-82
2023/04/20 12:36:43;;;;;;;20.13;9.07;;;;;;;;;;7711782;23;20015;-84
2023/04/20 12:39:44;;;;;;;12.33;7.00;;;;;;;;;;7713258;23;20003;-84
2023/04/20 12:42:45;;;;;;;11.45;4.65;;;;;;;;;;7712293;23;20418;-84
2023/04/20 12:45:46;;;;;;;11.38;4.43;;;;;;;;;;7713235;23;20007;-84
2023/04/20 12:48:48;;;;;;;10.95;3.85;;;;;;;;;;7712860;23;19988;-83
2023/04/20 12:51:51;;;;;;;;;;;;;;;;;;7712649;23;20005;-83
2023/04/20 12:54:51;;;;;;;10.48;4.60;;;;;;;;;;7712306;23;19904;-84
2023/04/20 12:57:51;;;;;;;8.67;4.77;;;;;;;;;;7711814;23;19992;-83
2023/04/20 13:00:51;;;;;;;9.77;4.47;;;;;;;;;;7685577;23;20333;-83
2023/04/20 13:03:52;;;;;;;9.43;4.53;;;;;;;;;;7711878;23;20020;-83
2023/04/20 13:06:52;;;;;;;7.70;3.77;;;;;;;;;;7685017;23;20032;-82
2023/04/20 13:09:52;;;;;;;14.37;4.33;;;;;;;;;;7713068;23;20043;-83
2023/04/20 13:12:52;;;;;;;12.93;3.70;;;;;;;;;;7684996;23;20321;-82
2023/04/20 13:15:53;;;;;;;9.35;3.33;;;;;;;;;;7712354;23;20094;-84
2023/04/20 13:18:53;;;;;;;12.93;3.33;;;;;;;;;;7712498;23;19989;-84
2023/04/20 13:21:53;;;;;;;9.03;3.07;;;;;;;;;;7711914;23;20003;-81
2023/04/20 13:24:54;;;;;;;9.37;3.40;;;;;;;;;;7711204;23;19997;-83
2023/04/20 13:27:54;;;;;;;13.43;3.73;;;;;;;;;;7684352;23;20000;-82
2023/04/20 13:30:56;;;;;;;11.57;3.60;;;;;;;;;;7711087;23;20019;-83
2023/04/20 13:33:56;;;;;;;13.27;4.47;;;;;;;;;;7712878;23;19997;-82
2023/04/20 13:36:57;;;;;;;10.07;2.83;;;;;;;;;;7712113;23;20414;-83
2023/04/20 13:39:57;;;;;;;15.33;3.93;;;;;;;;;;7712738;23;20016;-84
2023/04/20 13:42:57;;;;;;;9.00;3.00;;;;;;;;;;7711617;23;20031;-75
2023/04/20 13:45:58;;;;;;;11.57;3.27;;;;;;;;;;7710658;23;20003;-75
2023/04/20 13:48:58;;;;;;;14.63;4.68;;;;;;;;;;7711361;23;20024;-75
2023/04/20 13:51:58;;;;;;;8.63;3.80;;;;;;;;;;7710476;23;20166;-75
2023/04/20 13:54:59;;;;;;;9.70;3.00;;;;;;;;;;7711327;23;19996;-83
2023/04/20 13:57:59;;;;;;;8.87;3.57;;;;;;;;;;7712044;23;19997;-82
2023/04/20 14:00:59;;;;;;;5.43;2.57;;;;;;;;;;7712305;23;20003;-82
2023/04/20 14:03:59;;;;;;;11.93;3.58;;;;;;;;;;7714228;23;20012;-82
2023/04/20 14:07:00;;;;;;;14.43;3.33;;;;;;;;;;7711308;23;20072;-83
2023/04/20 14:10:00;;;;;;;16.90;3.50;;;;;;;;;;7711644;23;20004;-83
2023/04/20 14:13:00;;;;;;;10.00;3.47;;;;;;;;;;7712159;23;19996;-83
2023/04/20 14:16:00;;;;;;;14.87;3.43;;;;;;;;;;7711134;23;19996;-83
2023/04/20 14:19:00;;;;;;;8.18;2.47;;;;;;;;;;7709612;23;20050;-83
2023/04/20 14:22:01;;;;;;;11.13;2.70;;;;;;;;;;7711339;23;20000;-83
2023/04/20 14:25:02;;;;;;;11.95;3.80;;;;;;;;;;7685457;23;20001;-83
2023/04/20 14:28:03;;;;;;;11.30;3.05;;;;;;;;;;7711810;23;20075;-83
2023/04/20 14:31:03;;;;;;;9.35;2.47;;;;;;;;;;7711519;23;20035;-84
2023/04/20 14:34:03;;;;;;;10.03;3.43;;;;;;;;;;7684896;23;20000;-83
2023/04/20 14:37:03;;;;;;;13.13;2.80;;;;;;;;;;7711827;23;20046;-83
2023/04/20 14:40:06;;;;;;;8.00;2.60;;;;;;;;;;7685342;23;20433;-78
2023/04/20 14:43:06;;;;;;;8.63;3.17;;;;;;;;;;7732129;23;20000;-82
2023/04/20 14:46:06;;;;;;;9.53;3.03;;;;;;;;;;7707401;23;20086;-82
2023/04/20 14:49:06;;;;;;;9.23;2.63;;;;;;;;;;7728109;23;20005;-81
2023/04/20 14:52:07;;;;;;;11.87;3.67;;;;;;;;;;7711824;23;20005;-82
2023/04/20 14:55:08;;;;;;;8.90;4.03;;;;;;;;;;7710808;23;19992;-74
2023/04/20 14:58:09;;;;;;;14.63;4.77;;;;;;;;;;7710383;23;19993;-75
2023/04/20 15:01:11;;;;;;;5.07;2.72;;;;;;;;;;7709364;23;20451;-76
2023/04/20 15:04:11;;;;;;;10.63;3.05;;;;;;;;;;7721651;23;20004;-82
2023/04/20 15:07:11;;;;;;;9.53;2.80;;;;;;;;;;7731165;23;20035;-82
2023/04/20 15:10:12;;;;;;;7.77;2.93;;;;;;;;;;7695296;23;20009;-82
2023/04/20 15:13:12;;;;;;;10.90;3.00;;;;;;;;;;7715007;23;19988;-82
2023/04/20 15:16:12;;;;;;;11.40;4.33;;;;;;;;;;7687141;23;19997;-82
2023/04/20 15:19:12;;;;;;;12.60;3.40;;;;;;;;;;7710862;23;20436;-82
2023/04/20 15:22:12;;;;;;;5.53;3.23;;;;;;;;;;7712828;23;20000;-82
2023/04/20 15:25:13;;;;;;;9.30;2.67;;;;;;;;;;7685837;23;20055;-80
2023/04/20 15:28:13;;;;;;;8.40;2.83;;;;;;;;;;7711419;23;20066;-82
2023/04/20 15:31:15;;;;;;;10.67;3.40;;;;;;;;;;7715163;23;20007;-82
2023/04/20 15:34:15;;;;;;;13.52;3.97;;;;;;;;;;7715540;23;19997;-82
2023/04/20 15:37:15;;;;;;;11.13;2.77;;;;;;;;;;7712900;23;19999;-83
2023/04/20 15:40:20;;;;;;;9.30;3.20;;;;;;;;;;7714572;23;20504;-83
2023/04/20 15:43:20;;;;;;;13.40;3.47;;;;;;;;;;7714221;23;20008;-82
2023/04/20 15:46:23;;;;;;;8.70;3.63;;;;;;;;;;7686936;23;20001;-84
2023/04/20 15:49:23;;;;;;;8.07;3.92;;;;;;;;;;7714587;23;20043;-84
2023/04/20 15:52:23;;;;;;;5.87;2.67;;;;;;;;;;7713935;23;20111;-83
2023/04/20 15:55:23;;;;;;;13.03;4.57;;;;;;;;;;7711012;23;19992;-82
2023/04/20 15:58:24;;;;;;;12.00;4.80;;;;;;;;;;7711489;23;20373;-82
2023/04/20 16:01:24;;;;;;;11.60;3.95;;;;;;;;;;7710704;23;20475;-83
2023/04/20 16:04:24;;;;;;;13.90;3.17;;;;;;;;;;7710826;23;20004;-82
2023/04/20 16:07:24;;;;;;;9.23;3.73;;;;;;;;;;7711067;23;19997;-83
2023/04/20 16:10:26;;;;;;;11.43;3.30;;;;;;;;;;7710378;23;20087;-83
2023/04/20 16:13:26;;;;;;;12.45;3.78;;;;;;;;;;7710882;23;20001;-74
2023/04/20 16:16:26;;;;;;;12.10;3.87;;;;;;;;;;7710247;23;20015;-75
2023/04/20 16:19:29;;;;;;;9.37;3.63;;;;;;;;;;7710428;23;19996;-75
2023/04/20 16:22:29;;;;;;;14.18;4.55;;;;;;;;;;7710171;23;19993;-75
2023/04/20 16:25:31;;;;;;;12.33;3.83;;;;;;;;;;7709345;23;20028;-75
2023/04/20 16:28:31;;;;;;;10.10;4.43;;;;;;;;;;7709578;23;20000;-76
2023/04/20 16:31:31;;;;;;;18.77;5.17;;;;;;;;;;7710349;23;20078;-74
2023/04/20 16:34:32;;;;;;;16.23;6.40;;;;;;;;;;7711843;23;20067;-75
2023/04/20 16:37:34;;;;;;;15.53;7.33;;;;;;;;;;7711528;23;20421;-75
2023/04/20 16:40:34;;;;;;;14.07;7.47;;;;;;;;;;7711669;23;20004;-74
2023/04/20 16:43:34;;;;;;;20.33;10.23;;;;;;;;;;7711278;23;20321;-75
2023/04/20 16:46:34;;;;;;;19.13;8.27;;;;;;;;;;7711288;23;20023;-75
2023/04/20 16:49:35;;;;;;;16.60;7.00;;;;;;;;;;7711197;23;20413;-74
2023/04/20 16:52:35;;;;;;;18.57;6.60;;;;;;;;;;7710318;23;20004;-75
2023/04/20 16:55:35;;;;;;;18.87;7.90;;;;;;;;;;7709718;23;20405;-75
2023/04/20 16:58:35;;;;;;;16.03;8.70;;;;;;;;;;7712015;23;19992;-75
2023/04/20 17:01:36;;;;;;;20.10;8.20;;;;;;;;;;7683803;23;20016;-75
2023/04/20 17:04:36;;;;;;;25.23;11.00;;;;;;;;;;7711082;23;19997;-75
2023/04/20 17:07:36;;;;;;;17.70;7.27;;;;;;;;;;7710907;23;20064;-75
2023/04/20 17:10:37;;;;;;;18.57;8.40;;;;;;;;;;7684560;23;20495;-75
2023/04/20 17:13:37;;;;;;;19.77;11.73;;;;;;;;;;7711765;23;20415;-82
2023/04/20 17:16:37;;;;;;;22.52;10.25;;;;;;;;;;7712354;23;19996;-84
2023/04/20 17:19:39;;;;;;;25.75;9.68;;;;;;;;;;7711539;23;19996;-83
2023/04/20 17:22:39;;;;;;;18.20;7.32;;;;;;;;;;7710542;23;20002;-75
2023/04/20 17:25:41;;;;;;;18.27;6.82;;;;;;;;;;7707160;23;20003;-75
2023/04/20 17:28:41;;;;;;;20.50;7.93;;;;;;;;;;7710157;23;20000;-75
2023/04/20 17:31:42;;;;;;;15.90;7.67;;;;;;;;;;7710365;23;20000;-75
2023/04/20 17:34:47;;;;;;;18.52;8.20;;;;;;;;;;7710686;23;20333;-75
2023/04/20 17:37:47;;;;;;;18.88;8.95;;;;;;;;;;7710730;23;20020;-75
2023/04/20 17:40:47;;;;;;;26.63;9.83;;;;;;;;;;7709072;23;20004;-75
2023/04/20 17:43:49;;;;;;;27.03;11.17;;;;;;;;;;7710209;23;20047;-75